createdAt,value
2018-09-09T00:00:13.484Z,101735.00
2018-09-09T00:02:43.030Z,101725.09
2018-09-09T00:05:12.735Z,101732.22
2018-09-09T00:07:42.176Z,101736.66
2018-09-09T00:10:11.708Z,101730.66
2018-09-09T00:12:41.150Z,101738.81
2018-09-09T00:15:10.658Z,101735.35
2018-09-09T00:17:40.263Z,101736.72
2018-09-09T00:20:10.645Z,101734.73
2018-09-09T00:22:40.310Z,101739.95
2018-09-09T00:25:09.945Z,101739.50
2018-09-09T00:27:40.797Z,101733.03
2018-09-09T00:30:10.602Z,101737.28
2018-09-09T00:32:40.478Z,101737.09
2018-09-09T00:35:10.128Z,101742.83
2018-09-09T00:37:39.637Z,101741.04
2018-09-09T00:40:09.088Z,101738.09
2018-09-09T00:42:38.639Z,101734.14
2018-09-09T00:45:08.055Z,101725.54
2018-09-09T00:47:37.476Z,101725.83
2018-09-09T00:50:12.753Z,101723.65
2018-09-09T00:52:47.377Z,101733.30
2018-09-09T00:55:17.264Z,101718.88
2018-09-09T00:57:46.741Z,101724.03
2018-09-09T01:00:20.959Z,101723.79
2018-09-09T01:02:50.465Z,101723.91
2018-09-09T01:05:19.805Z,101724.03
2018-09-09T01:07:50.099Z,101714.92
2018-09-09T01:10:19.635Z,101720.27
2018-09-09T01:12:49.197Z,101719.42
2018-09-09T01:15:19.496Z,101716.67
2018-09-09T01:17:48.911Z,101718.76
2018-09-09T01:20:18.871Z,101713.06
2018-09-09T01:22:48.682Z,101711.22
2018-09-09T01:25:18.072Z,101711.73
2018-09-09T01:27:47.493Z,101706.16
2018-09-09T01:30:17.220Z,101710.75
2018-09-09T01:32:46.650Z,101702.52
2018-09-09T01:35:16.072Z,101699.64
2018-09-09T01:37:46.007Z,101691.18
2018-09-09T01:40:15.708Z,101695.44
2018-09-09T01:42:45.146Z,101695.77
2018-09-09T01:45:14.670Z,101705.97
2018-09-09T01:47:44.133Z,101711.40
2018-09-09T01:50:13.532Z,101711.11
2018-09-09T01:52:43.658Z,101713.97
2018-09-09T01:55:13.136Z,101706.79
2018-09-09T01:57:42.608Z,101706.98
2018-09-09T02:00:12.370Z,101706.79
2018-09-09T02:02:41.749Z,101709.35
2018-09-09T02:05:11.171Z,101713.45
2018-09-09T02:07:40.969Z,101713.23
2018-09-09T02:10:10.748Z,101710.64
2018-09-09T02:12:40.284Z,101713.42
2018-09-09T02:15:10.062Z,101717.13
2018-09-09T02:17:39.667Z,101716.25
2018-09-09T02:20:09.095Z,101716.01
2018-09-09T02:22:39.504Z,101714.85
2018-09-09T02:25:09.060Z,101708.08
2018-09-09T02:27:38.424Z,101713.77
2018-09-09T02:30:08.014Z,101705.55
2018-09-09T02:32:37.794Z,101699.26
2018-09-09T02:35:07.264Z,101703.15
2018-09-09T02:37:37.002Z,101705.05
2018-09-09T02:40:06.582Z,101716.25
2018-09-09T02:42:36.182Z,101712.62
2018-09-09T02:45:05.858Z,101714.47
2018-09-09T02:47:35.400Z,101710.39
2018-09-09T02:50:04.832Z,101712.33
2018-09-09T02:52:34.300Z,101708.53
2018-09-09T02:55:04.256Z,101716.05
2018-09-09T02:57:33.686Z,101718.42
2018-09-09T03:00:04.228Z,101724.20
2018-09-09T03:02:33.663Z,101719.45
2018-09-09T03:05:03.254Z,101722.16
2018-09-09T03:07:32.797Z,101723.12
2018-09-09T03:10:02.140Z,101721.11
2018-09-09T03:12:32.157Z,101718.16
2018-09-09T03:15:01.927Z,101726.89
2018-09-09T03:17:31.582Z,101723.89
2018-09-09T03:20:01.006Z,101715.02
2018-09-09T03:22:31.378Z,101717.39
2018-09-09T03:25:00.971Z,101716.17
2018-09-09T03:27:30.485Z,101719.09
2018-09-09T03:30:00.039Z,101720.17
2018-09-09T03:32:29.627Z,101711.63
2018-09-09T03:34:59.253Z,101715.51
2018-09-09T03:37:28.932Z,101713.69
2018-09-09T03:39:58.431Z,101715.28
2018-09-09T03:42:28.170Z,101719.34
2018-09-09T03:44:58.180Z,101713.12
2018-09-09T03:47:27.735Z,101720.02
2018-09-09T03:49:57.238Z,101710.81
2018-09-09T03:52:26.816Z,101713.92
2018-09-09T03:54:56.270Z,101711.00
2018-09-09T03:57:25.776Z,101709.66
2018-09-09T03:59:55.131Z,101704.70
2018-09-09T04:02:24.543Z,101710.23
2018-09-09T04:04:54.110Z,101706.77
2018-09-09T04:07:23.942Z,101711.23
2018-09-09T04:09:53.786Z,101715.86
2018-09-09T04:12:23.320Z,101709.58
2018-09-09T04:14:52.808Z,101711.95
2018-09-09T04:17:22.384Z,101713.35
2018-09-09T04:19:51.783Z,101714.02
2018-09-09T04:22:21.222Z,101712.63
2018-09-09T04:24:50.575Z,101718.39
2018-09-09T04:27:20.119Z,101709.17
2018-09-09T04:29:49.852Z,101708.83
2018-09-09T04:32:19.202Z,101710.56
2018-09-09T04:34:48.551Z,101715.05
2018-09-09T04:37:17.951Z,101716.42
2018-09-09T04:39:47.304Z,101719.48
2018-09-09T04:42:16.594Z,101717.77
2018-09-09T04:44:45.950Z,101722.70
2018-09-09T04:47:15.354Z,101725.59
2018-09-09T04:49:44.685Z,101728.99
2018-09-09T04:52:14.459Z,101731.22
2018-09-09T04:54:43.927Z,101730.06
2018-09-09T04:57:13.238Z,101732.08
2018-09-09T04:59:42.673Z,101733.42
2018-09-09T05:02:12.074Z,101731.70
2018-09-09T05:04:41.533Z,101730.38
2018-09-09T05:07:11.036Z,101738.06
2018-09-09T05:09:40.454Z,101750.14
2018-09-09T05:12:09.847Z,101747.02
2018-09-09T05:14:39.352Z,101745.97
2018-09-09T05:17:08.832Z,101751.13
2018-09-09T05:19:38.210Z,101750.92
2018-09-09T05:22:07.619Z,101746.64
2018-09-09T05:24:37.018Z,101757.03
2018-09-09T05:27:06.468Z,101754.27
2018-09-09T05:29:35.903Z,101762.21
2018-09-09T05:32:05.304Z,101765.55
2018-09-09T05:34:34.915Z,101766.42
2018-09-09T05:37:04.552Z,101762.09
2018-09-09T05:39:34.403Z,101773.05
2018-09-09T05:42:05.326Z,101764.91
2018-09-09T05:44:35.108Z,101768.73
2018-09-09T05:47:04.549Z,101767.67
2018-09-09T05:49:33.962Z,101769.95
2018-09-09T05:52:03.500Z,101776.73
2018-09-09T05:54:33.136Z,101770.91
2018-09-09T05:57:02.768Z,101771.55
2018-09-09T05:59:32.168Z,101772.67
2018-09-09T06:02:01.506Z,101778.09
2018-09-09T06:04:31.320Z,101787.16
2018-09-09T06:07:07.719Z,101778.25
2018-09-09T06:09:37.188Z,101769.34
2018-09-09T06:12:06.695Z,101781.02
2018-09-09T06:14:36.098Z,101777.85
2018-09-09T06:17:06.412Z,101775.91
2018-09-09T06:19:35.803Z,101777.53
2018-09-09T06:22:05.264Z,101772.89
2018-09-09T06:24:34.691Z,101769.03
2018-09-09T06:27:04.069Z,101771.62
2018-09-09T06:29:33.559Z,101777.91
2018-09-09T06:32:02.979Z,101775.02
2018-09-09T06:34:33.164Z,101779.14
2018-09-09T06:37:02.647Z,101774.52
2018-09-09T06:39:32.071Z,101769.18
2018-09-09T06:42:01.539Z,101768.38
2018-09-09T06:44:30.855Z,101778.52
2018-09-09T06:47:00.255Z,101780.85
2018-09-09T06:49:29.574Z,101774.27
2018-09-09T06:51:59.078Z,101776.50
2018-09-09T06:54:28.993Z,101784.42
2018-09-09T06:56:58.291Z,101782.52
2018-09-09T06:59:27.672Z,101778.64
2018-09-09T07:01:58.545Z,101785.08
2018-09-09T07:04:27.936Z,101797.59
2018-09-09T07:06:57.291Z,101798.77
2018-09-09T07:09:26.676Z,101797.09
2018-09-09T07:11:56.213Z,101803.11
2018-09-09T07:14:25.733Z,101801.94
2018-09-09T07:16:55.195Z,101802.59
2018-09-09T07:19:24.644Z,101804.23
2018-09-09T07:21:54.098Z,101801.94
2018-09-09T07:24:23.543Z,101810.58
2018-09-09T07:26:52.935Z,101805.27
2018-09-09T07:29:22.357Z,101803.89
2018-09-09T07:31:51.944Z,101809.16
2018-09-09T07:34:21.378Z,101802.69
2018-09-09T07:36:50.678Z,101809.54
2018-09-09T07:39:20.105Z,101813.48
2018-09-09T07:41:49.507Z,101805.42
2018-09-09T07:44:18.890Z,101808.38
2018-09-09T07:46:48.597Z,101809.83
2018-09-09T07:49:18.040Z,101807.65
2018-09-09T07:51:47.405Z,101810.22
2018-09-09T07:54:17.055Z,101819.23
2018-09-09T07:56:46.812Z,101819.72
2018-09-09T07:59:16.296Z,101825.30
2018-09-09T08:01:45.752Z,101822.72
2018-09-09T08:04:15.203Z,101827.38
2018-09-09T08:06:44.665Z,101830.63
2018-09-09T08:09:14.838Z,101823.09
2018-09-09T08:11:44.288Z,101824.11
2018-09-09T08:14:13.649Z,101823.19
2018-09-09T08:16:43.182Z,101822.92
2018-09-09T08:19:12.687Z,101825.95
2018-09-09T08:21:42.112Z,101828.12
2018-09-09T08:24:11.642Z,101827.42
2018-09-09T08:26:41.122Z,101836.51
2018-09-09T08:29:10.712Z,101837.28
2018-09-09T08:31:40.160Z,101839.93
2018-09-09T08:34:09.657Z,101834.69
2018-09-09T08:36:38.948Z,101830.00
2018-09-09T08:39:10.777Z,101831.80
2018-09-09T08:41:40.489Z,101836.80
2018-09-09T08:44:10.643Z,101837.30
2018-09-09T08:46:40.424Z,101832.54
2018-09-09T08:49:09.828Z,101834.77
2018-09-09T08:51:39.353Z,101831.62
2018-09-09T08:54:08.840Z,101841.37
2018-09-09T08:56:38.547Z,101826.94
2018-09-09T08:59:07.956Z,101831.23
2018-09-09T09:01:37.391Z,101831.74
2018-09-09T09:04:06.862Z,101823.97
2018-09-09T09:06:36.181Z,101825.65
2018-09-09T09:09:10.452Z,101823.98
2018-09-09T09:11:40.264Z,101827.75
2018-09-09T09:14:09.803Z,101817.87
2018-09-09T09:16:39.224Z,101817.02
2018-09-09T09:19:08.507Z,101820.55
2018-09-09T09:21:37.885Z,101817.84
2018-09-09T09:24:07.546Z,101818.51
2018-09-09T09:26:37.020Z,101812.09
2018-09-09T09:29:06.810Z,101808.13
2018-09-09T09:31:36.345Z,101808.12
2018-09-09T09:34:05.778Z,101801.22
2018-09-09T09:36:35.244Z,101798.36
2018-09-09T09:39:06.435Z,101801.87
2018-09-09T09:41:35.932Z,101803.39
2018-09-09T09:44:05.318Z,101793.73
2018-09-09T09:46:34.826Z,101796.75
2018-09-09T09:49:04.454Z,101789.82
2018-09-09T09:51:33.894Z,101792.81
2018-09-09T09:54:03.428Z,101793.69
2018-09-09T09:56:33.554Z,101794.55
2018-09-09T09:59:03.171Z,101798.30
2018-09-09T10:01:32.699Z,101796.20
2018-09-09T10:04:02.191Z,101794.95
2018-09-09T10:06:31.540Z,101783.22
2018-09-09T10:09:01.082Z,101788.53
2018-09-09T10:11:30.552Z,101780.57
2018-09-09T10:14:00.108Z,101783.56
2018-09-09T10:16:29.961Z,101785.30
2018-09-09T10:18:59.538Z,101798.48
2018-09-09T10:21:28.997Z,101792.05
2018-09-09T10:23:58.901Z,101783.53
2018-09-09T10:26:28.356Z,101777.13
2018-09-09T10:28:57.876Z,101779.19
2018-09-09T10:31:27.385Z,101776.92
2018-09-09T10:33:56.697Z,101773.36
2018-09-09T10:36:26.411Z,101765.73
2018-09-09T10:38:55.975Z,101775.66
2018-09-09T10:41:25.396Z,101779.81
2018-09-09T10:43:54.744Z,101771.47
2018-09-09T10:46:24.322Z,101767.73
2018-09-09T10:48:53.828Z,101770.40
2018-09-09T10:51:23.203Z,101767.17
2018-09-09T10:53:52.697Z,101769.40
2018-09-09T10:56:22.161Z,101766.30
2018-09-09T10:58:51.563Z,101772.85
2018-09-09T11:01:21.542Z,101774.99
2018-09-09T11:03:50.923Z,101772.27
2018-09-09T11:06:20.325Z,101768.30
2018-09-09T11:08:49.735Z,101768.84
2018-09-09T11:11:19.281Z,101769.16
2018-09-09T11:13:48.807Z,101768.39
2018-09-09T11:16:18.275Z,101763.55
2018-09-09T11:18:47.650Z,101765.81
2018-09-09T11:21:17.023Z,101767.58
2018-09-09T11:23:46.761Z,101763.52
2018-09-09T11:26:16.294Z,101757.00
2018-09-09T11:28:45.687Z,101762.83
2018-09-09T11:31:15.076Z,101755.48
2018-09-09T11:33:44.455Z,101752.98
2018-09-09T11:36:14.932Z,101755.11
2018-09-09T11:38:44.695Z,101756.59
2018-09-09T11:41:14.178Z,101764.52
2018-09-09T11:43:43.693Z,101763.93
2018-09-09T11:46:13.385Z,101763.73
2018-09-09T11:48:42.835Z,101759.11
2018-09-09T11:51:12.285Z,101754.79
2018-09-09T11:53:41.687Z,101758.47
2018-09-09T11:56:11.101Z,101764.80
2018-09-09T11:58:40.523Z,101756.70
2018-09-09T12:01:09.976Z,101762.31
2018-09-09T12:03:39.596Z,101759.07
2018-09-09T12:06:09.043Z,101762.82
2018-09-09T12:08:38.742Z,101758.88
2018-09-09T12:11:08.174Z,101763.51
2018-09-09T12:13:37.846Z,101757.48
2018-09-09T12:16:07.226Z,101754.45
2018-09-09T12:18:36.630Z,101756.21
2018-09-09T12:21:06.268Z,101754.66
2018-09-09T12:23:35.767Z,101750.48
2018-09-09T12:26:05.244Z,101749.89
2018-09-09T12:28:34.594Z,101742.11
2018-09-09T12:31:04.351Z,101758.65
2018-09-09T12:33:33.706Z,101752.78
2018-09-09T12:36:03.152Z,101746.27
2018-09-09T12:38:32.547Z,101745.43
2018-09-09T12:41:01.914Z,101750.48
2018-09-09T12:43:36.517Z,101748.03
2018-09-09T12:46:11.278Z,101743.16
2018-09-09T12:48:46.067Z,101751.52
2018-09-09T12:51:15.468Z,101752.78
2018-09-09T12:53:45.030Z,101747.25
2018-09-09T12:56:14.404Z,101754.12
2018-09-09T12:58:43.880Z,101753.73
2018-09-09T13:01:13.530Z,101748.21
2018-09-09T13:03:43.075Z,101755.87
2018-09-09T13:06:12.649Z,101760.85
2018-09-09T13:08:42.086Z,101754.52
2018-09-09T13:11:12.303Z,101756.15
2018-09-09T13:13:41.699Z,101749.63
2018-09-09T13:16:11.288Z,101756.37
2018-09-09T13:18:40.705Z,101749.61
2018-09-09T13:21:10.233Z,101753.96
2018-09-09T13:23:39.656Z,101754.39
2018-09-09T13:26:09.150Z,101745.02
2018-09-09T13:28:38.491Z,101750.59
2018-09-09T13:31:07.860Z,101749.70
2018-09-09T13:33:38.506Z,101749.70
2018-09-09T13:36:07.928Z,101748.89
2018-09-09T13:38:37.392Z,101756.33
2018-09-09T13:41:06.932Z,101748.47
2018-09-09T13:43:36.393Z,101752.58
2018-09-09T13:46:05.835Z,101756.44
2018-09-09T13:48:35.423Z,101749.99
2018-09-09T13:51:04.751Z,101747.38
2018-09-09T13:53:34.184Z,101739.91
2018-09-09T13:56:03.928Z,101749.30
2018-09-09T13:58:33.308Z,101743.82
2018-09-09T14:01:02.718Z,101742.58
2018-09-09T14:03:32.149Z,101743.02
2018-09-09T14:06:01.516Z,101739.31
2018-09-09T14:08:31.105Z,101738.75
2018-09-09T14:11:00.506Z,101739.67
2018-09-09T14:13:29.960Z,101742.69
2018-09-09T14:15:59.463Z,101740.92
2018-09-09T14:18:29.227Z,101735.72
2018-09-09T14:20:59.125Z,101744.18
2018-09-09T14:23:28.612Z,101743.52
2018-09-09T14:25:58.058Z,101743.82
2018-09-09T14:28:27.935Z,101743.63
2018-09-09T14:30:57.370Z,101742.14
2018-09-09T14:33:26.861Z,101742.20
2018-09-09T14:35:56.222Z,101747.66
2018-09-09T14:38:26.062Z,101744.43
2018-09-09T14:40:55.614Z,101743.27
2018-09-09T14:43:25.148Z,101745.69
2018-09-09T14:45:54.646Z,101749.03
2018-09-09T14:48:23.992Z,101743.38
2018-09-09T14:50:53.497Z,101746.80
2018-09-09T14:53:23.018Z,101740.25
2018-09-09T14:55:52.535Z,101748.73
2018-09-09T14:58:22.117Z,101745.70
2018-09-09T15:00:51.553Z,101742.55
2018-09-09T15:03:21.504Z,101743.20
2018-09-09T15:05:50.874Z,101744.83
2018-09-09T15:08:20.247Z,101740.19
2018-09-09T15:10:49.720Z,101741.39
2018-09-09T15:13:19.117Z,101739.95
2018-09-09T15:15:48.518Z,101738.45
2018-09-09T15:18:17.918Z,101734.59
2018-09-09T15:20:50.736Z,101741.25
2018-09-09T15:23:20.856Z,101738.20
2018-09-09T15:25:50.537Z,101736.64
2018-09-09T15:28:19.974Z,101739.48
2018-09-09T15:30:49.538Z,101733.62
2018-09-09T15:33:18.950Z,101736.52
2018-09-09T15:35:48.479Z,101731.27
2018-09-09T15:38:17.980Z,101735.74
2018-09-09T15:40:47.602Z,101733.36
2018-09-09T15:43:17.189Z,101744.53
2018-09-09T15:45:46.803Z,101740.95
2018-09-09T15:48:16.298Z,101731.38
2018-09-09T15:50:45.972Z,101737.05
2018-09-09T15:53:15.685Z,101730.25
2018-09-09T15:55:45.352Z,101735.16
2018-09-09T15:58:14.885Z,101732.23
2018-09-09T16:00:44.653Z,101729.98
2018-09-09T16:03:14.115Z,101727.44
2018-09-09T16:05:43.588Z,101723.10
2018-09-09T16:08:13.331Z,101720.98
2018-09-09T16:10:43.232Z,101727.44
2018-09-09T16:13:13.634Z,101734.05
2018-09-09T16:15:43.215Z,101726.85
2018-09-09T16:18:12.760Z,101729.11
2018-09-09T16:20:42.341Z,101731.58
2018-09-09T16:23:11.986Z,101733.88
2018-09-09T16:25:41.896Z,101733.62
2018-09-09T16:28:11.400Z,101728.77
2018-09-09T16:30:52.529Z,101739.27
2018-09-09T16:33:22.415Z,101736.84
2018-09-09T16:35:51.862Z,101738.37
2018-09-09T16:38:21.371Z,101735.41
2018-09-09T16:40:50.859Z,101740.00
2018-09-09T16:43:20.365Z,101748.55
2018-09-09T16:45:49.790Z,101748.78
2018-09-09T16:48:19.596Z,101749.16
2018-09-09T16:50:49.411Z,101748.28
2018-09-09T16:53:19.696Z,101743.45
2018-09-09T16:55:49.371Z,101739.92
2018-09-09T16:58:18.858Z,101745.75
2018-09-09T17:00:48.381Z,101742.52
2018-09-09T17:03:18.296Z,101740.57
2018-09-09T17:05:47.828Z,101741.73
2018-09-09T17:08:17.515Z,101741.48
2018-09-09T17:10:47.095Z,101739.62
2018-09-09T17:13:16.437Z,101736.16
2018-09-09T17:15:46.294Z,101730.86
2018-09-09T17:18:15.806Z,101733.30
2018-09-09T17:20:45.522Z,101748.08
2018-09-09T17:23:14.916Z,101739.12
2018-09-09T17:25:44.241Z,101741.55
2018-09-09T17:28:13.752Z,101743.10
2018-09-09T17:30:43.415Z,101748.01
2018-09-09T17:33:13.078Z,101748.92
2018-09-09T17:35:42.806Z,101748.72
2018-09-09T17:38:13.292Z,101759.13
2018-09-09T17:40:43.117Z,101755.01
2018-09-09T17:43:12.990Z,101765.66
2018-09-09T17:45:42.457Z,101763.62
2018-09-09T17:48:12.330Z,101760.09
2018-09-09T17:50:42.201Z,101766.42
2018-09-09T17:53:11.964Z,101764.70
2018-09-09T17:55:41.749Z,101770.40
2018-09-09T17:58:11.605Z,101768.58
2018-09-09T18:00:42.213Z,101766.19
2018-09-09T18:03:11.642Z,101777.28
2018-09-09T18:05:41.533Z,101781.41
2018-09-09T18:08:11.069Z,101779.71
2018-09-09T18:10:40.440Z,101784.56
2018-09-09T18:13:09.960Z,101784.56
2018-09-09T18:15:42.225Z,101778.86
2018-09-09T18:18:12.166Z,101781.45
2018-09-09T18:20:41.903Z,101780.98
2018-09-09T18:23:11.658Z,101781.42
2018-09-09T18:25:41.097Z,101781.42
2018-09-09T18:28:11.296Z,101782.04
2018-09-09T18:30:40.799Z,101778.20
2018-09-09T18:33:10.244Z,101786.28
2018-09-09T18:35:39.800Z,101783.17
2018-09-09T18:38:09.369Z,101781.53
2018-09-09T18:40:38.800Z,101786.37
2018-09-09T18:43:08.460Z,101780.75
2018-09-09T18:45:38.242Z,101779.73
2018-09-09T18:48:09.486Z,101775.71
2018-09-09T18:50:39.194Z,101777.02
2018-09-09T18:53:08.695Z,101771.06
2018-09-09T18:55:38.283Z,101778.34
2018-09-09T18:58:08.085Z,101778.12
2018-09-09T19:00:37.565Z,101772.00
2018-09-09T19:03:07.704Z,101772.13
2018-09-09T19:05:37.395Z,101769.20
2018-09-09T19:08:07.365Z,101776.31
2018-09-09T19:10:36.884Z,101774.95
2018-09-09T19:13:07.993Z,101776.84
2018-09-09T19:15:37.557Z,101778.52
2018-09-09T19:18:07.146Z,101773.67
2018-09-09T19:20:36.793Z,101780.28
2018-09-09T19:23:06.456Z,101777.11
2018-09-09T19:25:36.321Z,101779.67
2018-09-09T19:28:05.894Z,101776.70
2018-09-09T19:30:36.018Z,101774.69
2018-09-09T19:33:05.959Z,101781.94
2018-09-09T19:35:36.053Z,101783.22
2018-09-09T19:38:05.977Z,101776.84
2018-09-09T19:40:35.518Z,101782.95
2018-09-09T19:43:05.148Z,101791.12
2018-09-09T19:45:34.664Z,101785.20
2018-09-09T19:48:04.366Z,101794.48
2018-09-09T19:50:34.045Z,101793.75
2018-09-09T19:53:03.453Z,101791.94
2018-09-09T19:55:32.927Z,101800.88
2018-09-09T19:58:02.393Z,101794.73
2018-09-09T20:00:32.090Z,101791.97
2018-09-09T20:03:01.857Z,101786.35
2018-09-09T20:05:31.402Z,101785.41
2018-09-09T20:08:01.079Z,101795.64
2018-09-09T20:10:30.524Z,101800.10
2018-09-09T20:13:00.817Z,101796.13
2018-09-09T20:15:30.305Z,101793.58
2018-09-09T20:17:59.635Z,101802.48
2018-09-09T20:20:29.043Z,101804.02
2018-09-09T20:22:58.617Z,101800.83
2018-09-09T20:25:27.992Z,101805.23
2018-09-09T20:27:57.498Z,101793.83
2018-09-09T20:30:27.589Z,101788.80
2018-09-09T20:32:59.607Z,101784.80
2018-09-09T20:35:29.298Z,101782.61
2018-09-09T20:37:59.020Z,101776.42
2018-09-09T20:40:28.758Z,101778.77
2018-09-09T20:42:58.705Z,101782.44
2018-09-09T20:45:33.167Z,101783.82
2018-09-09T20:48:03.276Z,101790.98
2018-09-09T20:50:33.016Z,101786.86
2018-09-09T20:53:02.931Z,101785.47
2018-09-09T20:55:32.501Z,101780.83
2018-09-09T20:58:02.044Z,101786.17
2018-09-09T21:00:31.619Z,101787.78
2018-09-09T21:03:01.289Z,101786.94
2018-09-09T21:05:30.832Z,101787.47
2018-09-09T21:08:01.335Z,101785.59
2018-09-09T21:10:31.177Z,101788.39
2018-09-09T21:13:01.108Z,101782.12
2018-09-09T21:15:30.936Z,101786.11
2018-09-09T21:18:00.352Z,101777.28
2018-09-09T21:20:29.785Z,101777.47
2018-09-09T21:22:59.318Z,101779.56
2018-09-09T21:25:28.776Z,101779.84
2018-09-09T21:27:58.185Z,101780.95
2018-09-09T21:30:27.729Z,101783.81
2018-09-09T21:32:57.283Z,101780.16
2018-09-09T21:35:26.672Z,101777.53
2018-09-09T21:37:56.120Z,101774.61
2018-09-09T21:40:26.003Z,101776.18
2018-09-09T21:42:55.642Z,101777.48
2018-09-09T21:45:25.252Z,101786.33
2018-09-09T21:47:54.627Z,101787.76
2018-09-09T21:50:24.118Z,101782.25
2018-09-09T21:52:53.525Z,101778.75
2018-09-09T21:55:22.986Z,101778.91
2018-09-09T21:57:52.781Z,101772.44
2018-09-09T22:00:22.476Z,101771.56
2018-09-09T22:02:51.851Z,101768.22
2018-09-09T22:05:21.381Z,101775.21
2018-09-09T22:07:50.876Z,101778.97
2018-09-09T22:10:20.239Z,101766.22
2018-09-09T22:12:50.775Z,101762.48
2018-09-09T22:15:21.103Z,101762.00
2018-09-09T22:17:50.695Z,101763.90
2018-09-09T22:20:20.152Z,101762.82
2018-09-09T22:22:49.641Z,101775.69
2018-09-09T22:25:19.398Z,101774.03
2018-09-09T22:27:48.738Z,101774.51
2018-09-09T22:30:18.221Z,101784.63
2018-09-09T22:32:48.600Z,101779.72
2018-09-09T22:35:19.719Z,101780.04
2018-09-09T22:37:49.372Z,101776.63
2018-09-09T22:40:18.820Z,101769.45
2018-09-09T22:42:48.390Z,101774.70
2018-09-09T22:45:17.887Z,101773.56
2018-09-09T22:47:47.483Z,101774.52
2018-09-09T22:50:16.874Z,101775.02
2018-09-09T22:52:46.266Z,101774.05
2018-09-09T22:55:15.743Z,101778.20
2018-09-09T22:57:45.277Z,101778.53
2018-09-09T23:00:14.780Z,101783.35
2018-09-09T23:02:44.214Z,101785.45
2018-09-09T23:05:13.966Z,101777.75
2018-09-09T23:07:43.452Z,101777.12
2018-09-09T23:10:12.746Z,101769.25
2018-09-09T23:12:42.122Z,101767.51
2018-09-09T23:15:11.476Z,101771.34
2018-09-09T23:17:40.996Z,101762.16
2018-09-09T23:20:10.459Z,101760.33
2018-09-09T23:22:39.797Z,101759.28
2018-09-09T23:25:09.287Z,101756.77
2018-09-09T23:27:38.946Z,101752.75
2018-09-09T23:30:08.247Z,101749.81
2018-09-09T23:32:37.608Z,101749.03
2018-09-09T23:35:07.009Z,101743.44
2018-09-09T23:37:36.410Z,101741.61
2018-09-09T23:40:05.956Z,101742.41
2018-09-09T23:42:35.287Z,101742.27
2018-09-09T23:45:04.913Z,101743.78
2018-09-09T23:47:34.636Z,101738.97
2018-09-09T23:50:04.311Z,101731.73
2018-09-09T23:52:33.723Z,101724.55
2018-09-09T23:55:03.072Z,101729.32
2018-09-09T23:57:32.472Z,101725.12
